Latest Coastal Weather Observations for Bunbury

IDW60701

Issued at 10:33 pm WST Thursday 19 October 2017 (issued every 10 minutes, with the page automatically refreshed every 10 minutes)

About coastal observations | Map of coastal stations | Coastal observations for WA | Marine services | Other Formats
Station Details ID: 009965 Name: BUNBURY Lat: -33.36 Lon: 115.64 Height: 5.2 m
Data from the previous 72 hours. | See also: Recent months at Bunbury
Date/Time
WST
Temp
°C
Wind Pressure Rain since
9am
mm
Weather Cloud Vis
km
Sea
Height
m
Swell
Dir  Spd
kts
Gust
kts
hPa Trend Height
m
Period
s
Dir
19/10:30pm 13.5 SE 6 8 1026.3 - 0.0 - - - - - - -
19/10:00pm 13.4 SE 5 8 1026.2 - 0.0 - - - - - - -
19/09:30pm 13.2 SE 4 6 1026.1 - 0.0 - - - - - - -
19/09:00pm 14.1 SE 4 6 1026.2 - 0.0 - - - - - - -
19/08:30pm 13.0 S 2 3 1026.2 - 0.0 - - - - - - -
19/08:00pm 13.5 S 3 3 1026.2 - 0.0 - - - - - - -
19/07:30pm 14.7 SSW 3 3 1026.2 - 0.0 - - - - - - -
19/07:00pm 16.6 SW 3 5 1026.0 - 0.0 - - - - - - -
19/06:30pm 17.3 WSW 3 5 1025.6 - 0.0 - - - - - - -
19/06:00pm 18.1 SW 6 9 1025.5 - 0.0 - - - - - - -
19/05:30pm 18.6 WSW 7 10 1025.4 - 0.0 - - - - - - -
19/05:00pm 18.5 WSW 7 11 1025.3 - 0.0 - - - - - - -
19/04:30pm 21.3 W 6 11 1024.9 - 0.0 - - - - - - -
19/04:00pm 22.1 W 4 7 1024.6 - 0.0 - - - - - - -
19/03:30pm 22.6 ESE 7 12 1024.8 - 0.0 - - - - - - -
19/03:00pm 22.3 E 5 10 1024.7 - 0.0 - - - - - - -
19/02:30pm 22.1 ESE 4 13 1024.9 - 0.0 - - - - - - -
19/02:00pm 22.2 ENE 7 10 1025.3 - 0.0 - - - - - - -
19/01:30pm 21.3 SE 5 9 1025.8 - 0.0 - - - - - - -
19/01:00pm 21.3 E 7 12 1026.0 - 0.0 - - - - - - -
19/12:30pm 20.7 ENE 5 13 1026.3 - 0.0 - - - - - - -
19/12:00pm 19.9 E 7 11 1026.7 - 0.0 - - - - - - -
19/11:30am 19.1 SE 7 10 1027.0 - 0.0 - - - - - - -
19/11:00am 18.6 ESE 8 13 1027.3 - 0.0 - - - - - - -
19/10:30am 18.6 ENE 9 13 1027.8 - 0.0 - - - - - - -
19/10:00am 17.7 E 8 12 1028.2 - 0.0 - - - - - - -
19/09:30am 17.0 E 8 12 1028.4 - 0.0 - - - - - - -
19/09:00am 16.1 ESE 8 12 1028.7 - 0.0 - - - - - - -
19/08:30am 15.5 E 6 9 1028.8 - 0.0 - - - - - - -
19/08:00am 13.7 ESE 4 5 1028.9 - 0.0 - - - - - - -
19/07:30am 11.6 ESE 3 5 1028.9 - 0.0 - - - - - - -
19/07:00am 8.5 SE 3 5 1028.5 - 0.0 - - - - - - -
19/06:30am 5.9 ESE 3 4 1028.2 - 0.0 - - - - - - -
19/06:00am 3.8 ESE 2 2 1027.9 - 0.0 - - - - - - -
19/05:30am 3.7 ESE 1 2 1027.5 - 0.0 - - - - - - -
19/05:00am 4.0 ESE 2 2 1026.9 - 0.0 - - - - - - -
19/04:30am 4.4 CALM 0 0 1026.9 - 0.0 - - - - - - -
19/04:00am 4.0 CALM 0 0 1026.5 - 0.0 - - - - - - -
19/03:30am 3.8 CALM 0 0 1026.3 - 0.0 - - - - - - -
19/03:00am 3.9 SE 2 2 1026.3 - 0.0 - - - - - - -
19/02:30am 3.6 ESE 2 3 1026.3 - 0.0 - - - - - - -
19/02:00am 3.8 SE 1 2 1026.3 - 0.0 - - - - - - -
19/01:30am 4.9 ENE 2 3 1026.4 - 0.0 - - - - - - -
19/01:00am 5.2 CALM 0 0 1026.4 - 0.0 - - - - - - -
19/12:30am 5.8 CALM 0 0 1026.5 - 0.0 - - - - - - -
19/12:00am 6.2 CALM 0 0 1026.3 - 0.0 - - - - - - -
 
Date/Time
WST
Temp
°C
Wind Pressure Rain since
9am
mm
Weather Cloud Vis
km
Sea
Height
m
Swell
Dir  Spd
kts
Gust
kts
hPa Trend Height
m
Period
s
Dir
18/11:30pm 6.7 CALM 0 0 1026.1 - 0.0 - - - - - - -
18/11:00pm 6.9 CALM 0 0 1026.0 - 0.0 - - - - - - -
18/10:30pm 7.5 S 1 2 1026.0 - 0.0 - - - - - - -
18/10:00pm 8.6 S 2 3 1025.7 - 0.0 - - - - - - -
18/09:30pm 9.9 S 3 3 1025.6 - 0.0 - - - - - - -
18/09:00pm 10.2 S 3 5 1025.4 - 0.0 - - - - - - -
18/08:30pm 10.8 SSW 4 6 1025.4 - 0.0 - - - - - - -
18/08:00pm 11.8 S 5 8 1025.0 - 0.0 - - - - - - -
18/07:30pm 12.9 SSW 7 12 1024.5 - 0.0 - - - - - - -
18/07:00pm 13.3 SSW 8 13 1023.9 - 0.0 - - - - - - -
18/06:30pm 14.2 SW 8 13 1023.4 - 0.0 - - - - - - -
18/06:00pm 14.9 SW 8 11 1023.0 - 0.0 - - - - - - -
18/05:30pm 15.7 WSW 8 14 1022.6 - 0.0 - - - - - - -
18/05:00pm 16.3 WSW 9 15 1022.3 - 0.0 - - - - - - -
18/04:30pm 16.5 WSW 10 16 1021.9 - 0.0 - - - - - - -
18/04:00pm 16.7 WSW 10 17 1021.5 - 0.0 - - - - - - -
18/03:30pm 17.1 WSW 11 16 1021.2 - 0.0 - - - - - - -
18/03:00pm 16.8 SW 10 14 1020.9 - 0.0 - - - - - - -
18/02:30pm 16.9 W 10 15 1020.7 - 0.0 - - - - - - -
18/02:00pm 16.6 W 13 17 1020.9 - 0.0 - - - - - - -
18/01:30pm 16.5 WSW 10 16 1020.7 - 0.0 - - - - - - -
18/01:00pm 17.4 WSW 10 15 1020.7 - 0.0 - - - - - - -
18/12:30pm 17.5 WSW 10 17 1020.6 - 0.0 - - - - - - -
18/12:00pm 17.0 WSW 10 14 1020.6 - 0.0 - - - - - - -
18/11:30am 16.0 SW 11 16 1020.5 - 0.0 - - - - - - -
18/11:00am 15.7 WSW 12 20 1020.4 - 0.0 - - - - - - -
18/10:30am 15.9 SW 9 16 1020.3 - 0.0 - - - - - - -
18/10:00am 15.3 SW 13 20 1020.0 - 0.0 - - - - - - -
18/09:30am 15.7 SW 11 18 1019.7 - 0.0 - - - - - - -
18/09:00am 14.8 SW 12 19 1019.4 - 2.2 - - - - - - -
18/08:30am 15.4 WSW 10 17 1018.8 - 2.2 - - - - - - -
18/08:00am 14.6 WSW 11 18 1018.4 - 2.2 - - - - - - -
18/07:30am 14.6 WSW 11 18 1017.8 - 2.2 - - - - - - -
18/07:00am 14.2 WSW 10 15 1017.2 - 2.2 - - - - - - -
18/06:30am 13.7 SW 7 13 1016.8 - 2.2 - - - - - - -
18/06:00am 13.6 W 13 22 1016.5 - 2.2 - - - - - - -
18/05:30am 13.4 WSW 13 19 1015.9 - 2.2 - - - - - - -
18/05:00am 13.7 WSW 11 18 1015.3 - 2.2 - - - - - - -
18/04:30am 13.4 WSW 9 17 1014.9 - 2.2 - - - - - - -
18/04:00am 13.5 WSW 11 19 1014.5 - 2.2 - - - - - - -
18/03:30am 13.3 WSW 10 21 1014.2 - 2.2 - - - - - - -
18/03:00am 13.1 W 10 15 1013.7 - 2.2 - - - - - - -
18/02:30am 13.0 WSW 10 18 1013.4 - 2.2 - - - - - - -
18/02:00am 13.7 WSW 11 17 1013.1 - 2.2 - - - - - - -
18/01:30am 13.7 W 10 16 1012.9 - 2.2 - - - - - - -
18/01:00am 13.5 W 11 18 1012.7 - 2.2 - - - - - - -
18/12:30am 13.6 W 10 18 1012.7 - 2.2 - - - - - - -
18/12:00am 13.8 WSW 12 19 1012.6 - 2.2 - - - - - - -
 
Date/Time
WST
Temp
°C
Wind Pressure Rain since
9am
mm
Weather Cloud Vis
km
Sea
Height
m
Swell
Dir  Spd
kts
Gust
kts
hPa Trend Height
m
Period
s
Dir
17/11:30pm 13.8 WSW 10 17 1012.5 - 2.2 - - - - - - -
17/11:00pm 13.8 WSW 10 17 1012.3 - 2.2 - - - - - - -
17/10:30pm 13.6 WSW 13 19 1012.0 - 2.2 - - - - - - -
17/10:00pm 13.7 WSW 13 21 1011.7 - 2.2 - - - - - - -
17/09:30pm 13.8 WSW 13 22 1011.3 - 2.2 - - - - - - -
17/09:00pm 14.0 WSW 14 22 1010.9 - 2.2 - - - - - - -
17/08:30pm 13.9 WSW 14 22 1010.3 - 2.2 - - - - - - -
17/08:00pm 12.9 WSW 16 27 1009.8 - 2.2 - - - - - - -
17/07:38pm 13.7 W 15 25 1009.2 - 1.0 - - - - - - -
17/07:30pm 13.4 W 16 25 1009.1 - 0.4 - - - - - - -
17/07:04pm 14.4 W 15 26 1008.4 - 0.2 - - - - - - -
17/07:00pm 14.4 W 18 26 1008.4 - 0.2 - - - - - - -
17/06:52pm 15.2 WNW 15 26 1008.4 - 0.0 - - - - - - -
17/06:30pm 15.9 WNW 13 18 1007.9 - 0.0 - - - - - - -
17/06:00pm 16.7 NW 14 22 1007.5 - 0.0 - - - - - - -
17/05:30pm 17.1 NW 16 27 1007.3 - 0.0 - - - - - - -
17/05:23pm 17.1 NW 15 27 1007.3 - 0.0 - - - - - - -
17/05:00pm 16.8 NW 15 23 1007.2 - 0.0 - - - - - - -
17/04:30pm 16.5 NW 15 23 1007.1 - 0.0 - - - - - - -
17/04:00pm 17.5 NW 13 23 1006.9 - 0.0 - - - - - - -
17/03:30pm 17.9 NW 16 23 1007.1 - 0.0 - - - - - - -
17/03:00pm 18.8 NW 15 24 1007.1 - 0.0 - - - - - - -
17/02:30pm 18.1 NW 17 26 1007.4 - 0.0 - - - - - - -
17/02:21pm 18.0 WNW 16 26 1007.6 - 0.0 - - - - - - -
17/02:00pm 18.5 NW 14 21 1007.4 - 0.0 - - - - - - -
17/01:30pm 18.3 NW 14 21 1007.7 - 0.0 - - - - - - -
17/01:00pm 18.7 NNW 16 23 1007.9 - 0.0 - - - - - - -
17/12:30pm 18.3 NW 16 22 1008.1 - 0.0 - - - - - - -
17/12:00pm 16.9 NNW 16 24 1008.3 - 0.0 - - - - - - -
17/11:30am 15.8 NW 14 27 1008.6 - 0.0 - - - - - - -
17/11:15am 17.0 NW 15 30 1008.5 - 0.0 - - - - - - -
17/11:00am 18.6 NW 13 19 1008.5 - 0.0 - - - - - - -
17/10:30am 18.0 NW 14 19 1008.3 - 0.0 - - - - - - -
17/10:00am 17.2 WNW 13 17 1008.6 - 0.0 - - - - - - -
17/09:30am 17.3 WNW 13 20 1008.4 - 0.0 - - - - - - -
17/09:00am 16.2 WNW 13 18 1008.2 - 4.0 - - - - - - -
17/08:30am 15.8 W 12 18 1008.1 - 4.0 - - - - - - -
17/08:00am 16.0 W 12 18 1007.9 - 4.0 - - - - - - -
17/07:30am 15.4 W 12 19 1007.6 - 4.0 - - - - - - -
17/07:00am 15.0 W 11 21 1007.3 - 4.0 - - - - - - -
17/06:30am 14.4 W 11 16 1007.0 - 4.0 - - - - - - -
17/06:00am 14.0 W 9 15 1006.6 - 4.0 Recent precip. - - - - - -
17/05:30am 13.6 W 11 19 1006.2 - 4.0 - - - - - - -
17/05:00am 13.6 WSW 14 22 1006.2 - 3.8 - - - - - - -
17/04:30am 13.7 W 12 20 1005.8 - 3.8 - - - - - - -
17/04:15am 14.6 W 15 26 1005.6 - 3.8 - - - - - - -
17/04:00am 14.4 W 11 19 1005.4 - 3.8 - - - - - - -
17/03:30am 14.1 W 11 18 1005.2 - 3.8 - - - - - - -
17/03:00am 14.9 WNW 12 17 1005.0 - 3.8 - - - - - - -
17/02:30am 14.9 W 10 18 1004.9 - 3.8 - - - - - - -
17/02:00am 14.9 W 11 21 1005.0 - 3.8 - - - - - - -
17/01:30am 15.2 W 13 21 1005.1 - 3.8 - - - - - - -
17/01:00am 14.8 W 13 19 1004.8 - 3.8 - - - - - - -
17/12:30am 14.3 W 12 20 1004.4 - 3.6 - - - - - - -
17/12:00am 13.9 W 12 20 1004.2 - 3.6 - - - - - - -
 
Date/Time
WST
Temp
°C
Wind Pressure Rain since
9am
mm
Weather Cloud Vis
km
Sea
Height
m
Swell
Dir  Spd
kts
Gust
kts
hPa Trend Height
m
Period
s
Dir
16/11:30pm 15.4 WNW 13 23 1003.8 - 3.6 - - - - - - -
16/11:00pm 15.5 W 15 23 1003.5 - 3.6 - - - - - - -
16/10:48pm 15.6 WNW 15 25 1003.4 - 3.6 - - - - - - -

Other Formats:

Comma delimited format used in spreadsheet applications
http://www.bom.gov.au/fwo/IDW60701/IDW60701.94604.axf

JavaScript Object Notation format (JSON) in row-major order
http://www.bom.gov.au/fwo/IDW60701/IDW60701.94604.json